sensor_id;sensor_type;location;lat;lon;timestamp;temperature;humidity
580;DHT22;276;48.392;9.950;2024-03-07T00:00:08;9.80;99.90
580;DHT22;276;48.392;9.950;2024-03-07T00:02:49;9.80;99.90
580;DHT22;276;48.392;9.950;2024-03-07T00:05:20;9.80;99.90
580;DHT22;276;48.392;9.950;2024-03-07T00:07:46;9.80;99.90
580;DHT22;276;48.392;9.950;2024-03-07T00:10:17;9.80;99.90
580;DHT22;276;48.392;9.950;2024-03-07T00:12:43;9.80;99.90
580;DHT22;276;48.392;9.950;2024-03-07T00:15:10;9.80;99.90
580;DHT22;276;48.392;9.950;2024-03-07T00:17:37;9.70;99.90
580;DHT22;276;48.392;9.950;2024-03-07T00:20:04;9.80;99.90
580;DHT22;276;48.392;9.950;2024-03-07T00:22:36;9.80;99.90
580;DHT22;276;48.392;9.950;2024-03-07T00:25:05;9.80;99.90
580;DHT22;276;48.392;9.950;2024-03-07T00:27:31;9.70;99.90
580;DHT22;276;48.392;9.950;2024-03-07T00:29:58;9.70;99.90
580;DHT22;276;48.392;9.950;2024-03-07T00:32:26;9.70;99.90
580;DHT22;276;48.392;9.950;2024-03-07T00:34:55;9.70;99.90
580;DHT22;276;48.392;9.950;2024-03-07T00:37:26;9.70;99.90
580;DHT22;276;48.392;9.950;2024-03-07T00:39:52;9.70;99.90
580;DHT22;276;48.392;9.950;2024-03-07T00:42:17;9.70;99.90
580;DHT22;276;48.392;9.950;2024-03-07T00:44:43;9.70;99.90
580;DHT22;276;48.392;9.950;2024-03-07T00:47:09;9.60;99.90
580;DHT22;276;48.392;9.950;2024-03-07T00:49:35;9.60;99.90
580;DHT22;276;48.392;9.950;2024-03-07T00:52:00;9.60;99.90
580;DHT22;276;48.392;9.950;2024-03-07T00:54:26;9.60;99.90
580;DHT22;276;48.392;9.950;2024-03-07T00:56:52;9.60;99.90
580;DHT22;276;48.392;9.950;2024-03-07T00:59:20;9.60;99.90
580;DHT22;276;48.392;9.950;2024-03-07T01:01:46;9.60;99.90
580;DHT22;276;48.392;9.950;2024-03-07T01:04:12;9.60;99.90
580;DHT22;276;48.392;9.950;2024-03-07T01:06:37;9.50;99.90
580;DHT22;276;48.392;9.950;2024-03-07T01:09:08;9.50;99.90
580;DHT22;276;48.392;9.950;2024-03-07T01:11:46;9.50;99.90
580;DHT22;276;48.392;9.950;2024-03-07T01:14:13;9.50;99.90
580;DHT22;276;48.392;9.950;2024-03-07T01:16:39;9.50;99.90
580;DHT22;276;48.392;9.950;2024-03-07T01:19:07;9.50;99.90
580;DHT22;276;48.392;9.950;2024-03-07T01:21:34;9.50;99.90
580;DHT22;276;48.392;9.950;2024-03-07T01:24:02;9.50;99.90
580;DHT22;276;48.392;9.950;2024-03-07T01:26:29;9.50;99.90
580;DHT22;276;48.392;9.950;2024-03-07T01:28:58;9.40;99.90
580;DHT22;276;48.392;9.950;2024-03-07T01:31:24;9.40;99.90
580;DHT22;276;48.392;9.950;2024-03-07T01:33:50;9.40;99.90
580;DHT22;276;48.392;9.950;2024-03-07T01:36:16;9.40;99.90
580;DHT22;276;48.392;9.950;2024-03-07T01:38:47;9.40;99.90
580;DHT22;276;48.392;9.950;2024-03-07T01:41:15;9.40;99.90
580;DHT22;276;48.392;9.950;2024-03-07T01:43:41;9.40;99.90
580;DHT22;276;48.392;9.950;2024-03-07T01:46:10;9.40;99.90
580;DHT22;276;48.392;9.950;2024-03-07T01:48:39;9.40;99.90
580;DHT22;276;48.392;9.950;2024-03-07T01:51:06;9.40;99.90
580;DHT22;276;48.392;9.950;2024-03-07T01:53:33;9.30;99.90
580;DHT22;276;48.392;9.950;2024-03-07T01:56:02;9.30;99.90
580;DHT22;276;48.392;9.950;2024-03-07T01:58:29;9.30;99.90
580;DHT22;276;48.392;9.950;2024-03-07T02:00:56;9.30;99.90
580;DHT22;276;48.392;9.950;2024-03-07T02:03:23;9.30;99.90
580;DHT22;276;48.392;9.950;2024-03-07T02:05:51;9.30;99.90
580;DHT22;276;48.392;9.950;2024-03-07T02:08:19;9.30;99.90
580;DHT22;276;48.392;9.950;2024-03-07T02:10:45;9.30;99.90
580;DHT22;276;48.392;9.950;2024-03-07T02:13:11;9.30;99.90
580;DHT22;276;48.392;9.950;2024-03-07T02:15:39;9.30;99.90
580;DHT22;276;48.392;9.950;2024-03-07T02:18:08;9.30;99.90
580;DHT22;276;48.392;9.950;2024-03-07T02:20:34;9.30;99.90
580;DHT22;276;48.392;9.950;2024-03-07T02:23:00;9.20;99.90
580;DHT22;276;48.392;9.950;2024-03-07T02:25:26;9.30;99.90
580;DHT22;276;48.392;9.950;2024-03-07T02:27:53;9.30;99.90
580;DHT22;276;48.392;9.950;2024-03-07T02:30:19;9.20;99.90
580;DHT22;276;48.392;9.950;2024-03-07T02:32:46;9.20;99.90
580;DHT22;276;48.392;9.950;2024-03-07T02:35:17;9.20;99.90
580;DHT22;276;48.392;9.950;2024-03-07T02:37:43;9.20;99.90
580;DHT22;276;48.392;9.950;2024-03-07T02:40:11;9.20;99.90
580;DHT22;276;48.392;9.950;2024-03-07T02:42:37;9.20;99.90
580;DHT22;276;48.392;9.950;2024-03-07T02:45:03;9.20;99.90
580;DHT22;276;48.392;9.950;2024-03-07T02:47:28;9.10;99.90
580;DHT22;276;48.392;9.950;2024-03-07T02:49:56;9.10;99.90
580;DHT22;276;48.392;9.950;2024-03-07T02:52:22;9.10;99.90
580;DHT22;276;48.392;9.950;2024-03-07T02:54:50;9.10;99.90
580;DHT22;276;48.392;9.950;2024-03-07T02:57:16;9.10;99.90
580;DHT22;276;48.392;9.950;2024-03-07T02:59:46;9.10;99.90
580;DHT22;276;48.392;9.950;2024-03-07T03:02:14;9.10;99.90
580;DHT22;276;48.392;9.950;2024-03-07T03:04:39;9.10;99.90
580;DHT22;276;48.392;9.950;2024-03-07T03:07:10;9.20;99.90
580;DHT22;276;48.392;9.950;2024-03-07T03:09:38;9.10;99.90
580;DHT22;276;48.392;9.950;2024-03-07T03:12:09;9.10;99.90
580;DHT22;276;48.392;9.950;2024-03-07T03:14:34;9.10;99.90
580;DHT22;276;48.392;9.950;2024-03-07T03:17:03;9.10;99.90
580;DHT22;276;48.392;9.950;2024-03-07T03:19:28;9.10;99.90
580;DHT22;276;48.392;9.950;2024-03-07T03:21:54;9.10;99.90
580;DHT22;276;48.392;9.950;2024-03-07T03:24:23;9.10;99.90
580;DHT22;276;48.392;9.950;2024-03-07T03:26:49;9.10;99.90
580;DHT22;276;48.392;9.950;2024-03-07T03:29:14;9.10;99.90
580;DHT22;276;48.392;9.950;2024-03-07T03:31:45;9.10;99.90
580;DHT22;276;48.392;9.950;2024-03-07T03:34:11;9.10;99.90
580;DHT22;276;48.392;9.950;2024-03-07T03:36:37;9.00;99.90
580;DHT22;276;48.392;9.950;2024-03-07T03:39:02;9.00;99.90
580;DHT22;276;48.392;9.950;2024-03-07T03:41:28;9.00;99.90
580;DHT22;276;48.392;9.950;2024-03-07T03:43:53;9.00;99.90
580;DHT22;276;48.392;9.950;2024-03-07T03:46:19;9.00;99.90
580;DHT22;276;48.392;9.950;2024-03-07T03:48:45;9.00;99.90
580;DHT22;276;48.392;9.950;2024-03-07T03:51:10;9.00;99.90
580;DHT22;276;48.392;9.950;2024-03-07T03:53:40;9.00;99.90
580;DHT22;276;48.392;9.950;2024-03-07T03:56:10;9.00;99.90
580;DHT22;276;48.392;9.950;2024-03-07T03:58:39;8.90;99.90
580;DHT22;276;48.392;9.950;2024-03-07T04:01:05;8.90;99.90
580;DHT22;276;48.392;9.950;2024-03-07T04:03:33;8.90;99.90
580;DHT22;276;48.392;9.950;2024-03-07T04:05:59;8.90;99.90
580;DHT22;276;48.392;9.950;2024-03-07T04:08:29;8.90;99.90
580;DHT22;276;48.392;9.950;2024-03-07T04:10:55;8.90;99.90
580;DHT22;276;48.392;9.950;2024-03-07T04:13:20;8.80;99.90
580;DHT22;276;48.392;9.950;2024-03-07T04:15:48;8.80;99.90
580;DHT22;276;48.392;9.950;2024-03-07T04:18:14;8.80;99.90
580;DHT22;276;48.392;9.950;2024-03-07T04:20:40;8.80;99.90
580;DHT22;276;48.392;9.950;2024-03-07T04:23:08;8.70;99.90
580;DHT22;276;48.392;9.950;2024-03-07T04:25:34;8.70;99.90
580;DHT22;276;48.392;9.950;2024-03-07T04:28:01;8.70;99.90
580;DHT22;276;48.392;9.950;2024-03-07T04:30:29;8.70;99.90
580;DHT22;276;48.392;9.950;2024-03-07T04:33:00;8.60;99.90
580;DHT22;276;48.392;9.950;2024-03-07T04:35:25;8.60;99.90
580;DHT22;276;48.392;9.950;2024-03-07T04:37:51;8.60;99.90
580;DHT22;276;48.392;9.950;2024-03-07T04:40:21;8.60;99.90
580;DHT22;276;48.392;9.950;2024-03-07T04:42:48;8.60;99.90
580;DHT22;276;48.392;9.950;2024-03-07T04:45:15;8.50;99.90
580;DHT22;276;48.392;9.950;2024-03-07T04:47:44;8.50;99.90
580;DHT22;276;48.392;9.950;2024-03-07T04:50:13;8.40;99.90
580;DHT22;276;48.392;9.950;2024-03-07T04:52:42;8.40;99.90
580;DHT22;276;48.392;9.950;2024-03-07T04:55:08;8.40;99.90
580;DHT22;276;48.392;9.950;2024-03-07T04:57:39;8.40;99.90
580;DHT22;276;48.392;9.950;2024-03-07T05:00:15;8.40;99.90
580;DHT22;276;48.392;9.950;2024-03-07T05:02:49;8.40;99.90
580;DHT22;276;48.392;9.950;2024-03-07T05:05:15;8.40;99.90
580;DHT22;276;48.392;9.950;2024-03-07T05:07:48;8.40;99.90
580;DHT22;276;48.392;9.950;2024-03-07T05:10:15;8.40;99.90
580;DHT22;276;48.392;9.950;2024-03-07T05:12:41;8.40;99.90
580;DHT22;276;48.392;9.950;2024-03-07T05:15:07;8.40;99.90
580;DHT22;276;48.392;9.950;2024-03-07T05:17:35;8.40;99.90
580;DHT22;276;48.392;9.950;2024-03-07T05:20:03;8.30;99.90
580;DHT22;276;48.392;9.950;2024-03-07T05:22:36;8.40;99.90
580;DHT22;276;48.392;9.950;2024-03-07T05:25:08;8.40;99.90
580;DHT22;276;48.392;9.950;2024-03-07T05:27:36;8.40;99.90
580;DHT22;276;48.392;9.950;2024-03-07T05:30:04;8.40;99.90
580;DHT22;276;48.392;9.950;2024-03-07T05:32:34;8.40;99.90
580;DHT22;276;48.392;9.950;2024-03-07T05:35:00;8.30;99.90
580;DHT22;276;48.392;9.950;2024-03-07T05:37:28;8.30;99.90
580;DHT22;276;48.392;9.950;2024-03-07T05:39:53;8.30;99.90
580;DHT22;276;48.392;9.950;2024-03-07T05:42:21;8.30;99.90
580;DHT22;276;48.392;9.950;2024-03-07T05:44:49;8.30;99.90
580;DHT22;276;48.392;9.950;2024-03-07T05:47:15;8.30;99.90
580;DHT22;276;48.392;9.950;2024-03-07T05:49:43;8.30;99.90
580;DHT22;276;48.392;9.950;2024-03-07T05:52:09;8.30;99.90
580;DHT22;276;48.392;9.950;2024-03-07T05:54:35;8.30;99.90
580;DHT22;276;48.392;9.950;2024-03-07T05:57:01;8.30;99.90
580;DHT22;276;48.392;9.950;2024-03-07T05:59:28;8.30;99.90
580;DHT22;276;48.392;9.950;2024-03-07T06:01:57;8.30;99.90
580;DHT22;276;48.392;9.950;2024-03-07T06:04:23;8.30;99.90
580;DHT22;276;48.392;9.950;2024-03-07T06:06:53;8.30;99.90
580;DHT22;276;48.392;9.950;2024-03-07T06:09:19;8.20;99.90
580;DHT22;276;48.392;9.950;2024-03-07T06:11:49;8.20;99.90
580;DHT22;276;48.392;9.950;2024-03-07T06:14:15;8.30;99.90
580;DHT22;276;48.392;9.950;2024-03-07T06:16:41;8.30;99.90
580;DHT22;276;48.392;9.950;2024-03-07T06:19:08;8.30;99.90
580;DHT22;276;48.392;9.950;2024-03-07T06:21:36;8.30;99.90
580;DHT22;276;48.392;9.950;2024-03-07T06:24:07;8.30;99.90
580;DHT22;276;48.392;9.950;2024-03-07T06:26:36;8.30;99.90
580;DHT22;276;48.392;9.950;2024-03-07T06:29:20;8.30;99.90
580;DHT22;276;48.392;9.950;2024-03-07T06:31:47;8.20;99.90
580;DHT22;276;48.392;9.950;2024-03-07T06:34:15;8.20;99.90
580;DHT22;276;48.392;9.950;2024-03-07T06:36:41;8.20;99.90
580;DHT22;276;48.392;9.950;2024-03-07T06:39:07;8.20;99.90
580;DHT22;276;48.392;9.950;2024-03-07T06:41:38;8.20;99.90
580;DHT22;276;48.392;9.950;2024-03-07T06:44:09;8.30;99.90
580;DHT22;276;48.392;9.950;2024-03-07T06:46:35;8.30;99.90
580;DHT22;276;48.392;9.950;2024-03-07T06:49:00;8.30;99.90
580;DHT22;276;48.392;9.950;2024-03-07T06:51:26;8.30;99.90
580;DHT22;276;48.392;9.950;2024-03-07T06:53:52;8.30;99.90
580;DHT22;276;48.392;9.950;2024-03-07T06:56:18;8.30;99.90
580;DHT22;276;48.392;9.950;2024-03-07T06:58:44;8.30;99.90
580;DHT22;276;48.392;9.950;2024-03-07T07:01:12;8.30;99.90
580;DHT22;276;48.392;9.950;2024-03-07T07:03:41;8.30;99.90
580;DHT22;276;48.392;9.950;2024-03-07T07:06:08;8.30;99.90
580;DHT22;276;48.392;9.950;2024-03-07T07:08:36;8.30;99.90
580;DHT22;276;48.392;9.950;2024-03-07T07:11:02;8.40;99.90
580;DHT22;276;48.392;9.950;2024-03-07T07:13:30;8.30;99.90
580;DHT22;276;48.392;9.950;2024-03-07T07:15:57;8.30;99.90
580;DHT22;276;48.392;9.950;2024-03-07T07:18:23;8.30;99.90
580;DHT22;276;48.392;9.950;2024-03-07T07:20:49;8.30;99.90
580;DHT22;276;48.392;9.950;2024-03-07T07:23:19;8.20;99.90
580;DHT22;276;48.392;9.950;2024-03-07T07:25:45;8.10;99.90
580;DHT22;276;48.392;9.950;2024-03-07T07:28:12;8.10;99.90
580;DHT22;276;48.392;9.950;2024-03-07T07:30:37;8.00;99.90
580;DHT22;276;48.392;9.950;2024-03-07T07:33:03;8.00;99.90
580;DHT22;276;48.392;9.950;2024-03-07T07:35:31;7.90;99.90
580;DHT22;276;48.392;9.950;2024-03-07T07:37:59;7.90;99.90
580;DHT22;276;48.392;9.950;2024-03-07T07:40:29;7.90;99.90
580;DHT22;276;48.392;9.950;2024-03-07T07:42:58;7.90;99.90
580;DHT22;276;48.392;9.950;2024-03-07T07:45:27;7.90;99.90
580;DHT22;276;48.392;9.950;2024-03-07T07:47:53;7.90;99.90
580;DHT22;276;48.392;9.950;2024-03-07T07:50:20;7.90;99.90
580;DHT22;276;48.392;9.950;2024-03-07T07:52:47;7.90;99.90
580;DHT22;276;48.392;9.950;2024-03-07T07:55:20;7.90;99.90
580;DHT22;276;48.392;9.950;2024-03-07T07:57:57;7.90;99.90
580;DHT22;276;48.392;9.950;2024-03-07T08:00:24;7.90;99.90
580;DHT22;276;48.392;9.950;2024-03-07T08:05:24;7.90;99.90
580;DHT22;276;48.392;9.950;2024-03-07T08:07:54;8.00;99.90
580;DHT22;276;48.392;9.950;2024-03-07T08:10:25;8.00;99.90
580;DHT22;276;48.392;9.950;2024-03-07T08:12:53;8.00;99.90
580;DHT22;276;48.392;9.950;2024-03-07T08:15:22;8.00;99.90
580;DHT22;276;48.392;9.950;2024-03-07T08:17:48;8.00;99.90
580;DHT22;276;48.392;9.950;2024-03-07T08:20:20;7.90;99.90
580;DHT22;276;48.392;9.950;2024-03-07T08:22:49;7.90;99.90
580;DHT22;276;48.392;9.950;2024-03-07T08:25:23;8.00;99.90
580;DHT22;276;48.392;9.950;2024-03-07T08:27:50;8.00;99.90
580;DHT22;276;48.392;9.950;2024-03-07T08:30:16;8.00;99.90
580;DHT22;276;48.392;9.950;2024-03-07T08:32:49;8.10;99.90
580;DHT22;276;48.392;9.950;2024-03-07T08:35:17;8.10;99.90
580;DHT22;276;48.392;9.950;2024-03-07T08:37:47;8.10;99.90
580;DHT22;276;48.392;9.950;2024-03-07T08:40:19;8.10;99.90
580;DHT22;276;48.392;9.950;2024-03-07T08:42:46;8.20;99.90
580;DHT22;276;48.392;9.950;2024-03-07T08:45:12;8.20;99.90
580;DHT22;276;48.392;9.950;2024-03-07T08:47:43;8.20;99.90
580;DHT22;276;48.392;9.950;2024-03-07T08:50:12;8.30;99.90
580;DHT22;276;48.392;9.950;2024-03-07T08:52:39;8.20;99.90
580;DHT22;276;48.392;9.950;2024-03-07T08:55:09;8.20;99.90
580;DHT22;276;48.392;9.950;2024-03-07T08:57:39;8.30;99.90
580;DHT22;276;48.392;9.950;2024-03-07T09:00:05;8.30;99.90
580;DHT22;276;48.392;9.950;2024-03-07T09:02:35;8.30;99.90
580;DHT22;276;48.392;9.950;2024-03-07T09:05:01;8.40;99.90
580;DHT22;276;48.392;9.950;2024-03-07T09:07:30;8.30;99.90
580;DHT22;276;48.392;9.950;2024-03-07T09:09:57;8.30;99.90
580;DHT22;276;48.392;9.950;2024-03-07T09:12:22;8.20;99.90
580;DHT22;276;48.392;9.950;2024-03-07T09:14:51;8.20;99.90
580;DHT22;276;48.392;9.950;2024-03-07T09:17:18;8.20;99.90
580;DHT22;276;48.392;9.950;2024-03-07T09:19:43;8.20;99.90
580;DHT22;276;48.392;9.950;2024-03-07T09:22:11;8.30;99.90
580;DHT22;276;48.392;9.950;2024-03-07T09:24:41;8.30;99.90
580;DHT22;276;48.392;9.950;2024-03-07T09:27:07;8.30;99.90
580;DHT22;276;48.392;9.950;2024-03-07T09:29:33;8.30;99.90
580;DHT22;276;48.392;9.950;2024-03-07T09:31:59;8.30;99.90
580;DHT22;276;48.392;9.950;2024-03-07T09:34:25;8.30;99.90
580;DHT22;276;48.392;9.950;2024-03-07T09:36:51;8.30;99.90
580;DHT22;276;48.392;9.950;2024-03-07T09:39:17;8.30;99.90
580;DHT22;276;48.392;9.950;2024-03-07T09:41:44;8.30;99.90
580;DHT22;276;48.392;9.950;2024-03-07T09:44:14;8.30;99.90
580;DHT22;276;48.392;9.950;2024-03-07T09:46:48;8.30;99.90
580;DHT22;276;48.392;9.950;2024-03-07T09:49:18;8.30;99.90
580;DHT22;276;48.392;9.950;2024-03-07T09:51:48;8.30;99.90
580;DHT22;276;48.392;9.950;2024-03-07T09:54:22;8.40;99.90
580;DHT22;276;48.392;9.950;2024-03-07T09:56:52;8.40;99.90
580;DHT22;276;48.392;9.950;2024-03-07T09:59:22;8.50;99.90
580;DHT22;276;48.392;9.950;2024-03-07T10:01:51;8.50;99.90
580;DHT22;276;48.392;9.950;2024-03-07T10:04:33;8.50;99.90
580;DHT22;276;48.392;9.950;2024-03-07T10:07:03;8.50;99.90
580;DHT22;276;48.392;9.950;2024-03-07T10:09:30;8.40;99.90
580;DHT22;276;48.392;9.950;2024-03-07T10:12:01;8.40;99.90
580;DHT22;276;48.392;9.950;2024-03-07T10:14:32;8.40;99.90
580;DHT22;276;48.392;9.950;2024-03-07T10:17:00;8.40;99.90
580;DHT22;276;48.392;9.950;2024-03-07T10:19:28;8.40;99.90
580;DHT22;276;48.392;9.950;2024-03-07T10:21:54;8.40;99.90
580;DHT22;276;48.392;9.950;2024-03-07T10:24:27;8.40;99.90
580;DHT22;276;48.392;9.950;2024-03-07T10:26:54;8.40;99.90
580;DHT22;276;48.392;9.950;2024-03-07T10:29:23;8.40;99.90
580;DHT22;276;48.392;9.950;2024-03-07T10:31:50;8.40;99.90
580;DHT22;276;48.392;9.950;2024-03-07T10:34:16;8.40;99.90
580;DHT22;276;48.392;9.950;2024-03-07T10:36:43;8.30;99.90
580;DHT22;276;48.392;9.950;2024-03-07T10:39:09;8.30;99.90
580;DHT22;276;48.392;9.950;2024-03-07T10:41:49;8.30;99.90
580;DHT22;276;48.392;9.950;2024-03-07T10:44:25;8.20;99.90
580;DHT22;276;48.392;9.950;2024-03-07T10:46:58;8.20;99.90
580;DHT22;276;48.392;9.950;2024-03-07T10:49:31;8.30;99.90
580;DHT22;276;48.392;9.950;2024-03-07T10:52:02;8.30;99.90
580;DHT22;276;48.392;9.950;2024-03-07T10:54:39;8.40;99.90
580;DHT22;276;48.392;9.950;2024-03-07T11:00:10;8.40;99.90
580;DHT22;276;48.392;9.950;2024-03-07T11:02:56;8.50;99.90
580;DHT22;276;48.392;9.950;2024-03-07T11:05:28;8.50;99.90
580;DHT22;276;48.392;9.950;2024-03-07T11:08:01;8.50;99.90
580;DHT22;276;48.392;9.950;2024-03-07T11:10:49;8.50;99.90
580;DHT22;276;48.392;9.950;2024-03-07T11:13:18;8.40;99.90
580;DHT22;276;48.392;9.950;2024-03-07T11:15:46;8.40;99.90
580;DHT22;276;48.392;9.950;2024-03-07T11:18:13;8.50;99.90
580;DHT22;276;48.392;9.950;2024-03-07T11:20:41;8.50;99.90
580;DHT22;276;48.392;9.950;2024-03-07T11:23:31;8.50;99.90
580;DHT22;276;48.392;9.950;2024-03-07T11:26:08;8.50;99.90
580;DHT22;276;48.392;9.950;2024-03-07T11:28:35;8.50;99.90
580;DHT22;276;48.392;9.950;2024-03-07T11:33:40;8.60;99.90
580;DHT22;276;48.392;9.950;2024-03-07T11:36:12;8.60;99.90
580;DHT22;276;48.392;9.950;2024-03-07T11:38:47;8.60;99.90
580;DHT22;276;48.392;9.950;2024-03-07T11:41:18;8.70;99.90
580;DHT22;276;48.392;9.950;2024-03-07T11:43:46;8.80;99.90
580;DHT22;276;48.392;9.950;2024-03-07T11:46:12;8.90;99.90
580;DHT22;276;48.392;9.950;2024-03-07T11:48:44;8.90;99.90
580;DHT22;276;48.392;9.950;2024-03-07T11:51:13;9.00;99.90
580;DHT22;276;48.392;9.950;2024-03-07T11:53:41;9.10;99.90
580;DHT22;276;48.392;9.950;2024-03-07T11:56:08;9.10;99.90
580;DHT22;276;48.392;9.950;2024-03-07T11:58:43;9.20;99.90
580;DHT22;276;48.392;9.950;2024-03-07T12:01:17;9.20;99.90
580;DHT22;276;48.392;9.950;2024-03-07T12:03:44;9.20;99.90
580;DHT22;276;48.392;9.950;2024-03-07T12:06:10;9.20;99.90
580;DHT22;276;48.392;9.950;2024-03-07T12:08:42;9.20;99.90
580;DHT22;276;48.392;9.950;2024-03-07T12:11:10;9.20;99.90
580;DHT22;276;48.392;9.950;2024-03-07T12:13:43;9.20;99.90
580;DHT22;276;48.392;9.950;2024-03-07T12:16:13;9.30;99.90
580;DHT22;276;48.392;9.950;2024-03-07T12:18:39;9.30;99.90
580;DHT22;276;48.392;9.950;2024-03-07T12:21:07;9.30;99.90
580;DHT22;276;48.392;9.950;2024-03-07T12:23:34;9.20;99.90
580;DHT22;276;48.392;9.950;2024-03-07T12:26:04;9.20;99.90
580;DHT22;276;48.392;9.950;2024-03-07T12:28:30;9.20;99.90
580;DHT22;276;48.392;9.950;2024-03-07T12:31:03;9.20;99.90
580;DHT22;276;48.392;9.950;2024-03-07T12:33:30;9.20;99.90
580;DHT22;276;48.392;9.950;2024-03-07T12:35:57;9.20;99.90
580;DHT22;276;48.392;9.950;2024-03-07T12:38:31;9.20;99.90
580;DHT22;276;48.392;9.950;2024-03-07T12:41:12;9.20;99.90
580;DHT22;276;48.392;9.950;2024-03-07T12:43:41;9.10;99.90
580;DHT22;276;48.392;9.950;2024-03-07T12:46:11;9.10;99.90
580;DHT22;276;48.392;9.950;2024-03-07T12:48:40;9.10;99.90
580;DHT22;276;48.392;9.950;2024-03-07T12:51:06;9.10;99.90
580;DHT22;276;48.392;9.950;2024-03-07T12:53:34;9.10;99.90
580;DHT22;276;48.392;9.950;2024-03-07T12:56:00;9.10;99.90
580;DHT22;276;48.392;9.950;2024-03-07T12:58:26;9.10;99.90
580;DHT22;276;48.392;9.950;2024-03-07T13:00:55;9.00;99.90
580;DHT22;276;48.392;9.950;2024-03-07T13:03:26;9.00;99.90
580;DHT22;276;48.392;9.950;2024-03-07T13:05:58;9.00;99.90
580;DHT22;276;48.392;9.950;2024-03-07T13:08:28;9.00;99.90
580;DHT22;276;48.392;9.950;2024-03-07T13:10:56;9.10;99.90
580;DHT22;276;48.392;9.950;2024-03-07T13:13:24;9.10;99.90
580;DHT22;276;48.392;9.950;2024-03-07T13:15:50;9.00;99.90
580;DHT22;276;48.392;9.950;2024-03-07T13:18:20;9.00;99.90
580;DHT22;276;48.392;9.950;2024-03-07T13:20:48;9.00;99.90
580;DHT22;276;48.392;9.950;2024-03-07T13:23:13;9.10;99.90
580;DHT22;276;48.392;9.950;2024-03-07T13:25:40;9.00;99.90
580;DHT22;276;48.392;9.950;2024-03-07T13:28:09;9.00;99.90
580;DHT22;276;48.392;9.950;2024-03-07T13:30:43;9.00;99.90
580;DHT22;276;48.392;9.950;2024-03-07T13:33:09;9.00;99.90
580;DHT22;276;48.392;9.950;2024-03-07T13:35:39;9.00;99.90
580;DHT22;276;48.392;9.950;2024-03-07T13:38:08;9.00;99.90
580;DHT22;276;48.392;9.950;2024-03-07T13:40:37;9.10;99.90
580;DHT22;276;48.392;9.950;2024-03-07T13:43:06;9.10;99.90
580;DHT22;276;48.392;9.950;2024-03-07T13:45:34;9.10;99.90
580;DHT22;276;48.392;9.950;2024-03-07T13:48:08;9.10;99.90
580;DHT22;276;48.392;9.950;2024-03-07T13:50:36;9.10;99.90
580;DHT22;276;48.392;9.950;2024-03-07T13:53:06;9.10;99.90
580;DHT22;276;48.392;9.950;2024-03-07T14:15:30;9.40;99.90
580;DHT22;276;48.392;9.950;2024-03-07T14:18:24;9.50;99.90
580;DHT22;276;48.392;9.950;2024-03-07T14:27:29;9.50;99.90
580;DHT22;276;48.392;9.950;2024-03-07T14:32:28;9.50;99.90
580;DHT22;276;48.392;9.950;2024-03-07T14:37:45;9.50;99.90
580;DHT22;276;48.392;9.950;2024-03-07T14:40:15;9.50;99.90
580;DHT22;276;48.392;9.950;2024-03-07T14:42:47;9.40;99.90
580;DHT22;276;48.392;9.950;2024-03-07T14:45:23;9.40;99.90
580;DHT22;276;48.392;9.950;2024-03-07T14:47:51;9.50;99.90
580;DHT22;276;48.392;9.950;2024-03-07T14:50:20;9.40;99.90
580;DHT22;276;48.392;9.950;2024-03-07T14:52:51;9.40;99.90
580;DHT22;276;48.392;9.950;2024-03-07T14:55:17;9.40;99.90
580;DHT22;276;48.392;9.950;2024-03-07T14:57:46;9.40;99.90
580;DHT22;276;48.392;9.950;2024-03-07T15:00:13;9.30;99.90
580;DHT22;276;48.392;9.950;2024-03-07T15:02:48;9.30;99.90
580;DHT22;276;48.392;9.950;2024-03-07T15:05:17;9.30;99.90
580;DHT22;276;48.392;9.950;2024-03-07T15:07:47;9.30;99.90
580;DHT22;276;48.392;9.950;2024-03-07T15:10:26;9.20;99.90
580;DHT22;276;48.392;9.950;2024-03-07T15:12:52;9.20;99.90
580;DHT22;276;48.392;9.950;2024-03-07T15:15:23;9.30;99.90
580;DHT22;276;48.392;9.950;2024-03-07T15:17:56;9.30;99.90
580;DHT22;276;48.392;9.950;2024-03-07T15:20:28;9.40;99.90
580;DHT22;276;48.392;9.950;2024-03-07T15:23:00;9.40;99.90
580;DHT22;276;48.392;9.950;2024-03-07T15:25:27;9.40;99.90
580;DHT22;276;48.392;9.950;2024-03-07T15:27:54;9.50;99.90
580;DHT22;276;48.392;9.950;2024-03-07T15:30:22;9.50;99.90
580;DHT22;276;48.392;9.950;2024-03-07T15:32:50;9.50;99.90
580;DHT22;276;48.392;9.950;2024-03-07T15:35:17;9.60;99.90
580;DHT22;276;48.392;9.950;2024-03-07T15:37:47;9.60;99.90
580;DHT22;276;48.392;9.950;2024-03-07T15:40:17;9.60;99.90
580;DHT22;276;48.392;9.950;2024-03-07T15:42:44;9.60;99.90
580;DHT22;276;48.392;9.950;2024-03-07T15:45:24;9.50;99.90
580;DHT22;276;48.392;9.950;2024-03-07T15:47:55;9.50;99.90
580;DHT22;276;48.392;9.950;2024-03-07T15:50:24;9.50;99.90
580;DHT22;276;48.392;9.950;2024-03-07T15:52:56;9.50;99.90
580;DHT22;276;48.392;9.950;2024-03-07T15:55:25;9.50;99.90
580;DHT22;276;48.392;9.950;2024-03-07T15:57:55;9.50;99.90
580;DHT22;276;48.392;9.950;2024-03-07T16:00:25;9.50;99.90
580;DHT22;276;48.392;9.950;2024-03-07T16:02:59;9.50;99.90
580;DHT22;276;48.392;9.950;2024-03-07T16:05:31;9.40;99.90
580;DHT22;276;48.392;9.950;2024-03-07T16:08:00;9.40;99.90
580;DHT22;276;48.392;9.950;2024-03-07T16:10:28;9.40;99.90
580;DHT22;276;48.392;9.950;2024-03-07T16:12:56;9.40;99.90
580;DHT22;276;48.392;9.950;2024-03-07T16:15:23;9.30;99.90
580;DHT22;276;48.392;9.950;2024-03-07T16:17:55;9.30;99.90
580;DHT22;276;48.392;9.950;2024-03-07T16:20:32;9.40;99.90
580;DHT22;276;48.392;9.950;2024-03-07T16:22:59;9.40;99.90
580;DHT22;276;48.392;9.950;2024-03-07T16:25:29;9.40;99.90
580;DHT22;276;48.392;9.950;2024-03-07T16:27:58;9.40;99.90
580;DHT22;276;48.392;9.950;2024-03-07T16:30:26;9.40;99.90
580;DHT22;276;48.392;9.950;2024-03-07T16:32:54;9.40;99.90
580;DHT22;276;48.392;9.950;2024-03-07T16:35:26;9.40;99.90
580;DHT22;276;48.392;9.950;2024-03-07T16:37:52;9.40;99.90
580;DHT22;276;48.392;9.950;2024-03-07T16:40:19;9.40;99.90
580;DHT22;276;48.392;9.950;2024-03-07T16:42:51;9.40;99.90
580;DHT22;276;48.392;9.950;2024-03-07T16:45:21;9.40;99.90
580;DHT22;276;48.392;9.950;2024-03-07T16:47:48;9.40;99.90
580;DHT22;276;48.392;9.950;2024-03-07T16:50:18;9.30;99.90
580;DHT22;276;48.392;9.950;2024-03-07T16:52:45;9.30;99.90
580;DHT22;276;48.392;9.950;2024-03-07T16:55:16;9.30;99.90
580;DHT22;276;48.392;9.950;2024-03-07T16:57:45;9.20;99.90
580;DHT22;276;48.392;9.950;2024-03-07T17:00:16;9.20;99.90
580;DHT22;276;48.392;9.950;2024-03-07T17:02:54;9.20;99.90
580;DHT22;276;48.392;9.950;2024-03-07T17:05:28;9.20;99.90
580;DHT22;276;48.392;9.950;2024-03-07T17:07:55;9.10;99.90
580;DHT22;276;48.392;9.950;2024-03-07T17:10:23;9.10;99.90
580;DHT22;276;48.392;9.950;2024-03-07T17:12:50;9.10;99.90
580;DHT22;276;48.392;9.950;2024-03-07T17:15:20;9.10;99.90
580;DHT22;276;48.392;9.950;2024-03-07T17:17:53;9.10;99.90
580;DHT22;276;48.392;9.950;2024-03-07T17:20:23;9.20;99.90
580;DHT22;276;48.392;9.950;2024-03-07T17:22:52;9.20;99.90
580;DHT22;276;48.392;9.950;2024-03-07T17:25:20;9.20;99.90
580;DHT22;276;48.392;9.950;2024-03-07T17:27:47;9.20;99.90
580;DHT22;276;48.392;9.950;2024-03-07T17:30:20;9.20;99.90
580;DHT22;276;48.392;9.950;2024-03-07T17:32:46;9.20;99.90
580;DHT22;276;48.392;9.950;2024-03-07T17:35:13;9.10;99.90
580;DHT22;276;48.392;9.950;2024-03-07T17:37:39;9.20;99.90
580;DHT22;276;48.392;9.950;2024-03-07T17:40:06;9.20;99.90